createdAt,value
2019-02-04T00:00:58.370Z,13.48
2019-02-04T00:02:03.493Z,13.30
2019-02-04T00:03:08.353Z,13.32
2019-02-04T00:04:13.624Z,13.72
2019-02-04T00:05:18.771Z,15.05
2019-02-04T00:06:24.666Z,14.50
2019-02-04T00:07:30.102Z,13.32
2019-02-04T00:08:35.519Z,13.53
2019-02-04T00:09:40.364Z,13.00
2019-02-04T00:10:45.294Z,13.62
2019-02-04T00:11:50.216Z,13.78
2019-02-04T00:12:55.000Z,12.82
2019-02-04T00:14:00.178Z,13.32
2019-02-04T00:15:05.523Z,13.25
2019-02-04T00:16:10.988Z,13.75
2019-02-04T00:17:15.795Z,13.90
2019-02-04T00:18:20.586Z,13.48
2019-02-04T00:19:25.748Z,12.63
2019-02-04T00:20:30.550Z,13.75
2019-02-04T00:21:35.764Z,13.25
2019-02-04T00:22:40.719Z,13.58
2019-02-04T00:23:46.698Z,12.50
2019-02-04T00:24:51.833Z,12.50
2019-02-04T00:25:56.608Z,13.45
2019-02-04T00:27:01.120Z,13.28
2019-02-04T00:28:05.971Z,12.95
2019-02-04T00:29:10.463Z,13.05
2019-02-04T00:30:16.200Z,13.30
2019-02-04T00:31:21.495Z,12.15
2019-02-04T00:32:26.944Z,12.73
2019-02-04T00:33:31.414Z,13.32
2019-02-04T00:34:36.835Z,14.00
2019-02-04T00:35:42.256Z,13.60
2019-02-04T00:36:47.203Z,14.18
2019-02-04T00:37:51.761Z,13.90
2019-02-04T00:38:57.263Z,13.43
2019-02-04T00:40:02.151Z,13.43
2019-02-04T00:41:07.535Z,14.05
2019-02-04T00:42:12.447Z,13.55
2019-02-04T00:43:17.243Z,14.13
2019-02-04T00:44:22.392Z,13.80
2019-02-04T00:45:27.623Z,14.40
2019-02-04T00:46:32.367Z,13.83
2019-02-04T00:47:38.070Z,13.70
2019-02-04T00:48:43.207Z,13.95
2019-02-04T00:49:48.500Z,13.48
2019-02-04T00:50:53.374Z,13.80
2019-02-04T00:51:58.134Z,13.55
2019-02-04T00:53:02.951Z,13.35
2019-02-04T00:54:07.437Z,12.88
2019-02-04T00:55:12.401Z,14.58
2019-02-04T00:56:17.951Z,13.55
2019-02-04T00:57:22.790Z,12.75
2019-02-04T00:58:27.607Z,13.95
2019-02-04T00:59:32.401Z,13.38
2019-02-04T01:00:37.176Z,14.35
2019-02-04T01:01:41.948Z,13.35
2019-02-04T01:02:46.781Z,13.70
2019-02-04T01:03:51.592Z,15.00
2019-02-04T01:04:56.070Z,13.25
2019-02-04T01:06:01.561Z,14.83
2019-02-04T01:07:06.814Z,14.85
2019-02-04T01:08:11.889Z,14.03
2019-02-04T01:09:16.640Z,15.18
2019-02-04T01:10:23.502Z,14.07
2019-02-04T01:11:28.320Z,14.70
2019-02-04T01:12:33.481Z,14.78
2019-02-04T01:13:38.261Z,14.20
2019-02-04T01:14:43.131Z,15.00
2019-02-04T01:15:48.134Z,15.25
2019-02-04T01:17:03.261Z,14.65
2019-02-04T01:18:00.465Z,13.68
2019-02-04T01:19:05.250Z,14.25
2019-02-04T01:20:11.015Z,13.62
2019-02-04T01:21:15.966Z,13.53
2019-02-04T01:22:20.908Z,13.45
2019-02-04T01:23:25.392Z,13.48
2019-02-04T01:24:30.266Z,13.88
2019-02-04T01:25:34.770Z,13.50
2019-02-04T01:26:39.841Z,13.65
2019-02-04T01:27:44.581Z,15.40
2019-02-04T01:28:49.338Z,15.40
2019-02-04T01:29:54.964Z,14.53
2019-02-04T01:30:59.703Z,14.80
2019-02-04T01:32:05.476Z,14.70
2019-02-04T01:33:10.287Z,13.65
2019-02-04T01:34:15.459Z,15.25
2019-02-04T01:35:21.276Z,14.05
2019-02-04T01:36:25.734Z,15.13
2019-02-04T01:37:31.147Z,14.58
2019-02-04T01:38:36.364Z,15.15
2019-02-04T01:39:41.503Z,15.15
2019-02-04T01:40:46.643Z,14.40
2019-02-04T01:41:51.802Z,14.10
2019-02-04T01:42:56.693Z,13.68
2019-02-04T01:44:02.315Z,13.85
2019-02-04T01:45:08.030Z,14.15
2019-02-04T01:46:12.881Z,14.70
2019-02-04T01:47:17.828Z,14.75
2019-02-04T01:48:22.918Z,13.65
2019-02-04T01:49:28.530Z,14.85
2019-02-04T01:50:33.340Z,14.65
2019-02-04T01:51:37.811Z,14.10
2019-02-04T01:52:42.981Z,15.38
2019-02-04T01:53:47.967Z,15.80
2019-02-04T01:54:53.178Z,15.10
2019-02-04T01:55:58.319Z,15.13
2019-02-04T01:57:03.215Z,14.03
2019-02-04T01:58:08.750Z,14.55
2019-02-04T01:59:14.168Z,13.70
2019-02-04T02:00:30.109Z,13.98
2019-02-04T02:01:35.054Z,14.38
2019-02-04T02:02:40.041Z,13.35
2019-02-04T02:03:45.115Z,13.32
2019-02-04T02:04:49.890Z,14.45
2019-02-04T02:05:54.672Z,15.13
2019-02-04T02:06:59.750Z,14.75
2019-02-04T02:08:04.334Z,15.15
2019-02-04T02:09:17.068Z,13.62
2019-02-04T02:10:22.901Z,14.30
2019-02-04T02:11:28.056Z,14.33
2019-02-04T02:12:32.800Z,14.13
2019-02-04T02:13:37.650Z,14.23
2019-02-04T02:14:42.837Z,14.90
2019-02-04T02:15:47.941Z,14.78
2019-02-04T02:16:52.739Z,14.65
2019-02-04T02:17:58.236Z,14.13
2019-02-04T02:19:03.062Z,15.35
2019-02-04T02:20:08.156Z,13.58
2019-02-04T02:21:13.300Z,14.73
2019-02-04T02:22:18.061Z,14.63
2019-02-04T02:23:23.554Z,13.90
2019-02-04T02:24:28.666Z,15.10
2019-02-04T02:25:33.719Z,14.47
2019-02-04T02:26:39.236Z,14.65
2019-02-04T02:27:44.310Z,15.70
2019-02-04T02:28:49.384Z,14.93
2019-02-04T02:29:54.136Z,15.45
2019-02-04T02:30:59.730Z,14.98
2019-02-04T02:32:04.537Z,14.28
2019-02-04T02:33:09.328Z,14.50
2019-02-04T02:34:14.104Z,13.88
2019-02-04T02:35:18.949Z,14.13
2019-02-04T02:36:23.540Z,14.93
2019-02-04T02:37:28.411Z,15.08
2019-02-04T02:38:35.452Z,14.90
2019-02-04T02:39:40.036Z,15.80
2019-02-04T02:40:45.163Z,14.80
2019-02-04T02:41:49.938Z,13.95
2019-02-04T02:42:55.103Z,14.60
2019-02-04T02:44:00.575Z,15.25
2019-02-04T02:45:06.098Z,13.95
2019-02-04T02:46:11.840Z,15.08
2019-02-04T02:47:16.729Z,14.73
2019-02-04T02:48:22.296Z,14.73
2019-02-04T02:49:28.403Z,14.28
2019-02-04T02:50:32.909Z,15.03
2019-02-04T02:51:37.973Z,15.00
2019-02-04T02:52:42.925Z,14.83
2019-02-04T02:53:47.670Z,15.75
2019-02-04T02:54:52.958Z,15.95
2019-02-04T02:55:57.712Z,16.00
2019-02-04T02:57:03.497Z,15.85
2019-02-04T02:58:08.009Z,14.05
2019-02-04T02:59:13.371Z,14.87
2019-02-04T03:00:20.111Z,15.45
2019-02-04T03:01:25.234Z,15.38
2019-02-04T03:02:30.527Z,15.88
2019-02-04T03:03:35.312Z,14.83
2019-02-04T03:04:39.910Z,15.58
2019-02-04T03:05:44.787Z,14.33
2019-02-04T03:06:50.212Z,14.58
2019-02-04T03:07:54.981Z,13.48
2019-02-04T03:09:00.091Z,14.15
2019-02-04T03:10:04.881Z,13.28
2019-02-04T03:11:09.654Z,14.03
2019-02-04T03:12:15.153Z,12.85
2019-02-04T03:13:21.129Z,14.73
2019-02-04T03:14:25.913Z,13.60
2019-02-04T03:15:33.705Z,13.95
2019-02-04T03:16:38.480Z,13.48
2019-02-04T03:17:51.016Z,13.50
2019-02-04T03:18:49.232Z,14.58
2019-02-04T03:19:54.054Z,14.18
2019-02-04T03:20:59.088Z,14.18
2019-02-04T03:22:03.857Z,13.40
2019-02-04T03:23:08.593Z,14.38
2019-02-04T03:24:13.714Z,13.93
2019-02-04T03:25:18.879Z,14.15
2019-02-04T03:26:23.460Z,14.10
2019-02-04T03:27:28.520Z,13.75
2019-02-04T03:28:34.046Z,14.05
2019-02-04T03:29:38.570Z,14.93
2019-02-04T03:30:43.775Z,14.78
2019-02-04T03:31:48.527Z,14.33
2019-02-04T03:32:53.927Z,13.48
2019-02-04T03:33:59.654Z,13.65
2019-02-04T03:35:04.167Z,14.83
2019-02-04T03:36:09.486Z,14.35
2019-02-04T03:37:14.600Z,14.40
2019-02-04T03:38:19.087Z,14.33
2019-02-04T03:39:23.598Z,14.03
2019-02-04T03:40:30.229Z,14.50
2019-02-04T03:41:35.855Z,13.78
2019-02-04T03:42:41.406Z,13.78
2019-02-04T03:43:46.194Z,14.30
2019-02-04T03:44:50.689Z,14.85
2019-02-04T03:45:55.165Z,14.10
2019-02-04T03:47:00.096Z,14.87
2019-02-04T03:48:09.341Z,15.08
2019-02-04T03:49:11.749Z,15.38
2019-02-04T03:50:17.135Z,14.33
2019-02-04T03:51:22.515Z,15.13
2019-02-04T03:52:27.155Z,14.20
2019-02-04T03:53:31.902Z,14.45
2019-02-04T03:54:37.382Z,14.55
2019-02-04T03:55:42.171Z,13.43
2019-02-04T03:56:46.947Z,14.23
2019-02-04T03:57:52.515Z,14.20
2019-02-04T03:58:57.795Z,14.50
2019-02-04T04:00:02.628Z,14.50
2019-02-04T04:01:07.365Z,14.20
2019-02-04T04:02:11.932Z,14.25
2019-02-04T04:03:17.071Z,14.10
2019-02-04T04:04:22.162Z,14.47
2019-02-04T04:05:27.258Z,14.15
2019-02-04T04:06:32.346Z,13.60
2019-02-04T04:07:37.462Z,14.98
2019-02-04T04:08:43.010Z,14.33
2019-02-04T04:09:48.351Z,13.72
2019-02-04T04:10:53.490Z,14.53
2019-02-04T04:11:58.450Z,14.47
2019-02-04T04:13:03.652Z,14.00
2019-02-04T04:14:08.939Z,14.70
2019-02-04T04:15:13.883Z,13.88
2019-02-04T04:16:18.653Z,13.60
2019-02-04T04:17:23.866Z,14.80
2019-02-04T04:18:28.438Z,13.60
2019-02-04T04:19:33.582Z,14.10
2019-02-04T04:20:38.705Z,14.80
2019-02-04T04:21:43.533Z,13.90
2019-02-04T04:22:48.580Z,14.47
2019-02-04T04:23:54.898Z,13.50
2019-02-04T04:25:00.005Z,13.98
2019-02-04T04:26:04.796Z,14.65
2019-02-04T04:27:10.365Z,14.60
2019-02-04T04:28:15.340Z,14.68
2019-02-04T04:29:20.096Z,13.93
2019-02-04T04:30:26.752Z,14.35
2019-02-04T04:31:32.061Z,13.90
2019-02-04T04:32:36.798Z,14.13
2019-02-04T04:33:41.869Z,14.85
2019-02-04T04:34:46.640Z,14.73
2019-02-04T04:35:51.919Z,14.55
2019-02-04T04:36:57.438Z,13.35
2019-02-04T04:38:02.714Z,14.95
2019-02-04T04:39:08.435Z,14.70
2019-02-04T04:40:13.241Z,14.18
2019-02-04T04:41:17.763Z,13.32
2019-02-04T04:42:23.369Z,13.98
2019-02-04T04:43:28.241Z,13.55
2019-02-04T04:44:33.077Z,14.58
2019-02-04T04:45:37.827Z,14.35
2019-02-04T04:46:42.622Z,14.33
2019-02-04T04:47:47.876Z,14.18
2019-02-04T04:48:55.629Z,13.62
2019-02-04T04:49:59.479Z,13.90
2019-02-04T04:51:04.841Z,14.28
2019-02-04T04:52:10.056Z,14.30
2019-02-04T04:53:14.932Z,12.82
2019-02-04T04:54:19.423Z,13.85
2019-02-04T04:55:26.475Z,12.80
2019-02-04T04:56:31.656Z,13.55
2019-02-04T04:57:36.834Z,13.80
2019-02-04T04:58:41.644Z,12.88
2019-02-04T04:59:46.733Z,13.80
2019-02-04T05:00:51.494Z,13.50
2019-02-04T05:01:56.293Z,13.60
2019-02-04T05:03:01.091Z,13.68
2019-02-04T05:04:07.037Z,14.98
2019-02-04T05:05:12.260Z,13.68
2019-02-04T05:06:17.812Z,13.28
2019-02-04T05:07:22.314Z,13.62
2019-02-04T05:08:27.107Z,13.90
2019-02-04T05:09:32.309Z,13.30
2019-02-04T05:10:37.502Z,13.58
2019-02-04T05:11:42.299Z,13.83
2019-02-04T05:12:47.476Z,13.88
2019-02-04T05:13:52.571Z,13.70
2019-02-04T05:14:58.044Z,13.85
2019-02-04T05:16:02.514Z,13.75
2019-02-04T05:17:07.357Z,13.75
2019-02-04T05:18:11.860Z,13.75
2019-02-04T05:19:16.349Z,13.08
2019-02-04T05:20:21.164Z,13.62
2019-02-04T05:21:26.377Z,13.25
2019-02-04T05:22:31.112Z,13.00
2019-02-04T05:23:35.952Z,13.25
2019-02-04T05:24:40.772Z,13.60
2019-02-04T05:25:45.654Z,14.07
2019-02-04T05:26:50.889Z,13.60
2019-02-04T05:27:56.264Z,13.58
2019-02-04T05:29:01.184Z,14.20
2019-02-04T05:30:06.416Z,13.20
2019-02-04T05:31:11.534Z,13.15
2019-02-04T05:32:16.940Z,14.05
2019-02-04T05:33:22.519Z,13.58
2019-02-04T05:34:27.806Z,13.13
2019-02-04T05:35:32.545Z,13.60
2019-02-04T05:36:37.315Z,13.50
2019-02-04T05:37:42.103Z,13.72
2019-02-04T05:38:46.696Z,13.60
2019-02-04T05:39:51.489Z,13.45
2019-02-04T05:40:56.259Z,13.78
2019-02-04T05:42:01.314Z,13.40
2019-02-04T05:43:06.207Z,13.20
2019-02-04T05:44:10.693Z,13.98
2019-02-04T05:45:16.864Z,13.13
2019-02-04T05:46:21.636Z,13.75
2019-02-04T05:47:26.434Z,13.53
2019-02-04T05:48:31.005Z,14.15
2019-02-04T05:49:35.765Z,13.88
2019-02-04T05:50:40.385Z,13.22
2019-02-04T05:51:45.529Z,14.60
2019-02-04T05:52:51.301Z,13.50
2019-02-04T05:53:56.427Z,13.30
2019-02-04T05:55:00.909Z,13.62
2019-02-04T05:56:05.726Z,13.62
2019-02-04T05:57:10.856Z,14.10
2019-02-04T05:58:15.640Z,13.50
2019-02-04T05:59:20.167Z,14.58
2019-02-04T06:00:39.015Z,14.23
2019-02-04T06:01:43.901Z,13.60
2019-02-04T06:02:49.495Z,14.18
2019-02-04T06:03:54.310Z,14.10
2019-02-04T06:04:59.213Z,14.05
2019-02-04T06:06:04.312Z,14.47
2019-02-04T06:07:09.388Z,13.32
2019-02-04T06:08:14.160Z,13.10
2019-02-04T06:09:19.313Z,13.95
2019-02-04T06:10:24.978Z,13.50
2019-02-04T06:11:29.827Z,15.20
2019-02-04T06:12:35.061Z,13.60
2019-02-04T06:13:40.034Z,12.98
2019-02-04T06:14:45.213Z,13.15
2019-02-04T06:15:50.314Z,14.23
2019-02-04T06:16:55.793Z,14.40
2019-02-04T06:18:00.559Z,13.18
2019-02-04T06:19:05.320Z,13.22
2019-02-04T06:20:12.758Z,14.03
2019-02-04T06:21:17.508Z,13.53
2019-02-04T06:22:22.554Z,13.90
2019-02-04T06:23:27.893Z,13.70
2019-02-04T06:24:33.142Z,13.25
2019-02-04T06:25:37.922Z,13.60
2019-02-04T06:26:42.727Z,13.40
2019-02-04T06:27:47.952Z,12.63
2019-02-04T06:28:53.056Z,13.22
2019-02-04T06:29:58.204Z,12.85
2019-02-04T06:31:03.292Z,13.90
2019-02-04T06:32:08.081Z,12.82
2019-02-04T06:33:13.004Z,13.10
2019-02-04T06:34:17.829Z,12.43
2019-02-04T06:35:28.908Z,13.35
2019-02-04T06:36:33.685Z,13.03
2019-02-04T06:37:38.469Z,13.20
2019-02-04T06:38:43.877Z,13.13
2019-02-04T06:39:48.736Z,12.90
2019-02-04T06:40:54.081Z,13.30
2019-02-04T06:41:58.866Z,12.93
2019-02-04T06:43:03.444Z,12.40
2019-02-04T06:44:08.634Z,12.60
2019-02-04T06:45:14.200Z,12.75
2019-02-04T06:46:18.959Z,13.38
2019-02-04T06:47:24.100Z,13.22
2019-02-04T06:48:28.649Z,12.25
2019-02-04T06:49:33.400Z,12.90
2019-02-04T06:50:37.900Z,11.65
2019-02-04T06:51:43.575Z,12.47
2019-02-04T06:52:48.356Z,13.32
2019-02-04T06:53:53.181Z,12.05
2019-02-04T06:54:57.948Z,12.70
2019-02-04T06:56:02.699Z,12.85
2019-02-04T06:57:08.096Z,11.95
2019-02-04T06:58:13.072Z,13.15
2019-02-04T06:59:17.951Z,12.80
2019-02-04T07:00:22.748Z,12.15
2019-02-04T07:01:27.515Z,12.53
2019-02-04T07:02:32.274Z,12.70
2019-02-04T07:03:37.087Z,12.68
2019-02-04T07:04:42.288Z,12.50
2019-02-04T07:05:47.521Z,12.60
2019-02-04T07:06:52.331Z,13.03
2019-02-04T07:07:57.447Z,12.30
2019-02-04T07:09:02.929Z,13.03
2019-02-04T07:10:09.315Z,12.80
2019-02-04T07:11:14.201Z,12.90
2019-02-04T07:12:19.329Z,12.70
2019-02-04T07:13:25.163Z,11.83
2019-02-04T07:14:30.137Z,12.90
2019-02-04T07:15:35.274Z,12.88
2019-02-04T07:16:40.056Z,12.73
2019-02-04T07:17:45.003Z,12.50
2019-02-04T07:18:51.106Z,12.47
2019-02-04T07:19:56.323Z,12.45
2019-02-04T07:21:01.130Z,12.78
2019-02-04T07:22:05.883Z,13.22
2019-02-04T07:23:10.642Z,12.50
2019-02-04T07:24:15.167Z,12.58
2019-02-04T07:25:20.146Z,12.70
2019-02-04T07:26:24.909Z,12.82
2019-02-04T07:27:29.731Z,12.10
2019-02-04T07:28:34.208Z,13.15
2019-02-04T07:29:38.986Z,12.30
2019-02-04T07:30:43.476Z,12.43
2019-02-04T07:31:48.294Z,11.83
2019-02-04T07:32:53.057Z,13.15
2019-02-04T07:33:58.209Z,12.07
2019-02-04T07:35:03.011Z,12.23
2019-02-04T07:36:07.679Z,12.65
2019-02-04T07:37:13.345Z,12.75
2019-02-04T07:38:19.378Z,12.68
2019-02-04T07:39:24.328Z,12.95
2019-02-04T07:40:31.141Z,11.97
2019-02-04T07:41:36.245Z,12.93
2019-02-04T07:42:40.726Z,13.15
2019-02-04T07:43:45.342Z,12.63
2019-02-04T07:44:50.169Z,13.08
2019-02-04T07:45:54.950Z,13.25
2019-02-04T07:46:59.711Z,13.55
2019-02-04T07:48:05.053Z,13.83
2019-02-04T07:49:10.261Z,12.65
2019-02-04T07:50:15.198Z,12.88
2019-02-04T07:51:19.949Z,12.53
2019-02-04T07:52:24.742Z,13.45
2019-02-04T07:53:29.931Z,12.95
2019-02-04T07:54:34.714Z,12.70
2019-02-04T07:55:39.646Z,13.32
2019-02-04T07:56:45.228Z,13.40
2019-02-04T07:57:50.317Z,11.50
2019-02-04T07:58:55.411Z,13.05
2019-02-04T08:00:00.639Z,13.75
2019-02-04T08:01:05.722Z,13.08
2019-02-04T08:02:10.492Z,13.20
2019-02-04T08:03:15.283Z,13.25
2019-02-04T08:04:19.761Z,12.30
2019-02-04T08:05:24.859Z,12.13
2019-02-04T08:06:29.688Z,12.90
2019-02-04T08:07:34.819Z,13.60
2019-02-04T08:08:39.697Z,12.47
2019-02-04T08:09:44.601Z,12.90
2019-02-04T08:10:49.803Z,12.78
2019-02-04T08:11:55.152Z,12.63
2019-02-04T08:13:01.800Z,13.15
2019-02-04T08:14:06.808Z,13.08
2019-02-04T08:15:15.053Z,14.07
2019-02-04T08:16:19.572Z,13.45
2019-02-04T08:17:24.746Z,12.88
2019-02-04T08:18:30.114Z,13.00
2019-02-04T08:19:46.483Z,12.37
2019-02-04T08:20:41.541Z,13.00
2019-02-04T08:21:46.355Z,13.65
2019-02-04T08:22:51.163Z,13.45
2019-02-04T08:23:56.654Z,12.98
2019-02-04T08:25:01.500Z,12.65
2019-02-04T08:26:06.274Z,13.72
2019-02-04T08:27:11.092Z,13.13
2019-02-04T08:28:15.850Z,13.05
2019-02-04T08:29:20.634Z,12.37
2019-02-04T08:30:27.506Z,13.72
2019-02-04T08:31:32.350Z,13.30
2019-02-04T08:32:36.859Z,12.55
2019-02-04T08:33:41.635Z,13.62
2019-02-04T08:34:47.247Z,13.43
2019-02-04T08:35:52.003Z,12.68
2019-02-04T08:36:57.275Z,13.43
2019-02-04T08:38:02.347Z,12.85
2019-02-04T08:39:09.221Z,14.25
2019-02-04T08:40:14.040Z,13.38
2019-02-04T08:41:18.536Z,12.58
2019-02-04T08:42:23.923Z,12.93
2019-02-04T08:43:28.782Z,13.72
2019-02-04T08:44:33.420Z,12.73
2019-02-04T08:45:38.202Z,13.10
2019-02-04T08:46:42.678Z,12.60
2019-02-04T08:47:47.806Z,13.88
2019-02-04T08:48:52.563Z,13.85
2019-02-04T08:49:58.665Z,13.53
2019-02-04T08:51:03.933Z,12.95
2019-02-04T08:52:09.157Z,12.85
2019-02-04T08:53:13.931Z,13.30
2019-02-04T08:54:18.438Z,13.10
2019-02-04T08:55:23.508Z,13.13
2019-02-04T08:56:28.682Z,13.28
2019-02-04T08:57:33.457Z,12.73
2019-02-04T08:58:38.230Z,12.43
2019-02-04T08:59:42.729Z,14.03
2019-02-04T09:00:47.603Z,13.55
2019-02-04T09:01:52.815Z,13.55
2019-02-04T09:02:57.581Z,12.93
2019-02-04T09:04:03.254Z,12.90
2019-02-04T09:05:08.824Z,13.98
2019-02-04T09:06:13.735Z,12.13
2019-02-04T09:07:19.126Z,13.20
2019-02-04T09:08:23.871Z,13.65
2019-02-04T09:09:28.997Z,13.32
2019-02-04T09:10:33.870Z,12.88
2019-02-04T09:11:38.387Z,12.73
2019-02-04T09:12:43.465Z,11.95
2019-02-04T09:13:48.919Z,12.60
2019-02-04T09:14:53.988Z,13.18
2019-02-04T09:15:59.096Z,13.20
2019-02-04T09:17:03.998Z,13.32
2019-02-04T09:18:09.090Z,13.58
2019-02-04T09:19:14.281Z,13.45
2019-02-04T09:20:19.082Z,13.60
2019-02-04T10:16:30.381Z,11.25
2019-02-04T10:17:35.751Z,11.90
2019-02-04T10:18:41.495Z,11.10
2019-02-04T10:19:47.058Z,12.03
2019-02-04T10:20:51.984Z,12.07
2019-02-04T10:21:56.800Z,10.93
2019-02-04T10:36:15.223Z,9.65
2019-02-04T10:37:27.062Z,10.93
2019-02-04T10:38:39.052Z,10.68
2019-02-04T10:39:44.134Z,11.35
2019-02-04T10:41:28.127Z,10.63
2019-02-04T10:42:33.388Z,10.70
2019-02-04T10:44:31.158Z,9.45
2019-02-04T10:45:56.409Z,9.85
2019-02-04T10:51:41.196Z,9.48
2019-02-04T10:54:52.490Z,8.48
2019-02-04T10:55:57.830Z,9.13
2019-02-04T10:57:05.275Z,9.28
2019-02-04T11:01:58.226Z,8.23
2019-02-04T11:03:04.300Z,8.83
2019-02-04T11:04:10.332Z,8.75
2019-02-04T11:05:18.161Z,8.35
2019-02-04T11:06:22.984Z,8.18
2019-02-04T11:07:28.422Z,8.20
2019-02-04T11:08:33.889Z,9.05
2019-02-04T11:09:38.389Z,8.33
2019-02-04T11:10:42.995Z,8.08
2019-02-04T11:11:47.858Z,7.97
2019-02-04T11:12:52.669Z,8.00
2019-02-04T11:13:57.829Z,7.90
2019-02-04T11:15:02.732Z,7.78
2019-02-04T11:16:07.569Z,7.12
2019-02-04T11:17:12.611Z,7.95
2019-02-04T11:18:17.567Z,8.18
2019-02-04T11:19:22.469Z,7.45
2019-02-04T11:20:28.531Z,6.78
2019-02-04T11:21:33.667Z,7.45
2019-02-04T11:22:38.878Z,7.22
2019-02-04T11:23:43.843Z,6.55
2019-02-04T11:24:50.755Z,7.12
2019-02-04T11:25:55.211Z,6.17
2019-02-04T11:27:00.008Z,6.78
2019-02-04T11:28:05.308Z,6.80
2019-02-04T11:29:11.082Z,6.90
2019-02-04T11:30:19.916Z,7.00
2019-02-04T11:31:25.415Z,6.67
2019-02-04T11:32:32.990Z,6.00
2019-02-04T11:33:38.478Z,6.40
2019-02-04T11:34:43.403Z,6.70
2019-02-04T11:35:48.495Z,6.15
2019-02-04T11:36:55.253Z,6.60
2019-02-04T11:38:03.227Z,6.25
2019-02-04T11:39:09.986Z,5.67
2019-02-04T11:40:17.466Z,6.67
2019-02-04T11:41:25.055Z,6.53
2019-02-04T11:42:32.109Z,6.28
2019-02-04T11:43:38.317Z,6.15
2019-02-04T11:44:43.122Z,5.80
2019-02-04T11:45:48.190Z,6.08
2019-02-04T11:46:53.781Z,6.03
2019-02-04T11:47:59.149Z,6.10
2019-02-04T11:49:04.072Z,6.00
2019-02-04T11:50:09.895Z,5.75
2019-02-04T11:51:14.386Z,6.10
2019-02-04T11:52:19.182Z,6.05
2019-02-04T11:53:32.384Z,6.00
2019-02-04T11:54:31.350Z,5.95
2019-02-04T11:55:36.549Z,5.72
2019-02-04T11:56:42.502Z,5.87
2019-02-04T11:57:49.159Z,5.97
2019-02-04T11:58:54.369Z,6.10
2019-02-04T11:59:59.429Z,6.25
2019-02-04T12:01:04.853Z,5.65
2019-02-04T12:02:09.669Z,6.30
2019-02-04T12:03:15.792Z,5.60
2019-02-04T12:04:22.594Z,5.12
2019-02-04T12:05:27.904Z,5.53
2019-02-04T12:06:32.688Z,5.47
2019-02-04T12:07:37.959Z,5.05
2019-02-04T12:08:42.737Z,5.40
2019-02-04T12:09:51.184Z,5.55
2019-02-04T12:11:08.943Z,4.87
2019-02-04T12:12:14.498Z,5.35
2019-02-04T12:13:19.112Z,5.30
2019-02-04T12:14:23.892Z,4.97
2019-02-04T12:15:29.315Z,5.50
2019-02-04T12:16:34.110Z,5.05
2019-02-04T12:17:39.231Z,5.28
2019-02-04T12:18:44.076Z,4.92
2019-02-04T12:19:48.936Z,5.25
2019-02-04T12:20:53.814Z,4.90
2019-02-04T12:21:58.947Z,4.90
2019-02-04T12:23:04.388Z,5.10
2019-02-04T12:24:09.289Z,5.10
2019-02-04T12:25:17.190Z,5.03
2019-02-04T12:26:22.392Z,4.70
2019-02-04T12:27:32.083Z,4.85
2019-02-04T12:28:33.443Z,4.40
2019-02-04T12:29:39.747Z,4.80
2019-02-04T12:30:44.287Z,5.20
2019-02-04T12:31:49.079Z,5.00
2019-02-04T12:32:54.161Z,5.05
2019-02-04T12:33:58.694Z,4.35
2019-02-04T12:35:03.806Z,4.30
2019-02-04T12:36:08.769Z,4.37
2019-02-04T12:37:14.601Z,4.15
2019-02-04T12:38:19.166Z,3.85
2019-02-04T12:39:23.972Z,3.77
2019-02-04T12:40:32.156Z,4.20
2019-02-04T12:41:36.953Z,4.17
2019-02-04T12:42:42.032Z,4.28
2019-02-04T12:43:47.308Z,4.10
2019-02-04T12:44:52.943Z,3.75
2019-02-04T12:45:58.019Z,4.10
2019-02-04T12:47:04.452Z,3.45
2019-02-04T12:48:09.746Z,3.62
2019-02-04T12:49:15.092Z,3.62
2019-02-04T12:50:20.311Z,4.15
2019-02-04T12:51:33.270Z,3.77
2019-02-04T12:52:31.987Z,4.05
2019-02-04T12:53:36.850Z,3.42
2019-02-04T12:54:42.916Z,3.95
2019-02-04T12:55:48.247Z,3.98
2019-02-04T12:57:01.781Z,3.45
2019-02-04T12:58:09.533Z,3.65
2019-02-04T12:59:14.442Z,3.90
2019-02-04T13:00:21.756Z,3.95
2019-02-04T13:01:26.566Z,3.85
2019-02-04T13:02:34.491Z,3.62
2019-02-04T13:03:39.391Z,3.75
2019-02-04T13:04:48.714Z,3.95
2019-02-04T13:05:55.824Z,4.03
2019-02-04T13:07:01.768Z,3.65
2019-02-04T13:08:07.846Z,4.42
2019-02-04T13:09:12.686Z,4.05
2019-02-04T13:10:20.513Z,3.90
2019-02-04T13:11:25.593Z,4.20
2019-02-04T13:12:31.040Z,4.15
2019-02-04T13:13:40.140Z,4.10
2019-02-04T13:14:45.898Z,4.50
2019-02-04T13:15:50.919Z,4.17
2019-02-04T13:16:55.767Z,3.80
2019-02-04T13:18:01.393Z,4.00
2019-02-04T13:19:07.069Z,3.90
2019-02-04T13:20:12.829Z,4.35
2019-02-04T13:21:17.971Z,4.08
2019-02-04T13:22:22.526Z,4.00
2019-02-04T13:23:27.787Z,4.00
2019-02-04T13:24:33.117Z,4.45
2019-02-04T13:25:39.403Z,3.98
2019-02-04T13:26:44.795Z,4.55
2019-02-04T13:27:50.189Z,4.20
2019-02-04T13:28:55.631Z,3.70
2019-02-04T13:30:01.091Z,4.17
2019-02-04T13:31:05.858Z,4.35
2019-02-04T13:32:10.964Z,4.58
2019-02-04T13:33:16.490Z,3.90
2019-02-04T13:34:21.363Z,4.00
2019-02-04T13:35:26.166Z,4.03
2019-02-04T13:36:31.962Z,3.75
2019-02-04T13:37:37.424Z,3.47
2019-02-04T13:38:42.297Z,3.60
2019-02-04T13:39:47.444Z,3.65
2019-02-04T13:40:52.213Z,3.92
2019-02-04T13:41:57.036Z,3.70
2019-02-04T13:43:01.785Z,3.62
2019-02-04T13:44:06.952Z,3.70
2019-02-04T13:45:13.756Z,4.08
2019-02-04T13:46:18.533Z,3.45
2019-02-04T13:47:23.678Z,3.60
2019-02-04T13:48:28.826Z,4.28
2019-02-04T13:49:33.948Z,3.55
2019-02-04T13:50:39.693Z,3.60
2019-02-04T13:51:44.447Z,3.80
2019-02-04T13:52:50.005Z,3.90
2019-02-04T13:53:57.225Z,3.87
2019-02-04T13:55:02.079Z,3.85
2019-02-04T13:56:06.850Z,3.98
2019-02-04T13:57:11.380Z,4.03
2019-02-04T13:58:17.004Z,3.98
2019-02-04T13:59:22.061Z,4.00
2019-02-04T14:00:27.584Z,3.80
2019-02-04T14:01:33.108Z,4.05
2019-02-04T14:02:37.867Z,3.62
2019-02-04T14:03:42.626Z,4.42
2019-02-04T14:04:47.533Z,3.80
2019-02-04T14:05:52.032Z,4.60
2019-02-04T14:06:56.816Z,3.87
2019-02-04T14:08:01.799Z,4.28
2019-02-04T14:09:12.331Z,4.58
2019-02-04T14:10:30.904Z,3.90
2019-02-04T14:11:35.688Z,3.70
2019-02-04T14:12:40.820Z,4.45
2019-02-04T14:13:45.602Z,3.98
2019-02-04T14:14:50.790Z,4.20
2019-02-04T14:15:55.916Z,4.35
2019-02-04T14:17:00.443Z,4.20
2019-02-04T14:18:05.741Z,4.20
2019-02-04T14:19:10.506Z,4.33
2019-02-04T14:20:17.509Z,5.08
2019-02-04T14:21:22.709Z,4.92
2019-02-04T14:22:27.208Z,4.53
2019-02-04T14:23:32.387Z,5.03
2019-02-04T14:24:37.631Z,4.47
2019-02-04T14:25:42.982Z,4.90
2019-02-04T14:26:48.046Z,4.90
2019-02-04T14:27:53.623Z,4.92
2019-02-04T14:28:58.568Z,4.90
2019-02-04T14:30:03.085Z,4.78
2019-02-04T14:31:08.225Z,4.60
2019-02-04T14:32:12.992Z,4.35
2019-02-04T14:33:18.241Z,4.87
2019-02-04T14:34:23.068Z,4.87
2019-02-04T14:35:28.083Z,5.30
2019-02-04T14:36:33.223Z,4.95
2019-02-04T14:37:37.721Z,4.87
2019-02-04T14:38:43.159Z,5.17
2019-02-04T14:39:47.949Z,5.25
2019-02-04T14:40:52.713Z,4.58
2019-02-04T14:41:57.857Z,4.90
2019-02-04T14:43:43.679Z,4.37
2019-02-04T14:44:56.513Z,5.00
2019-02-04T14:46:54.010Z,4.80
2019-02-04T14:48:24.052Z,4.08
2019-02-04T14:50:15.740Z,5.22
2019-02-04T14:52:07.221Z,4.53
2019-02-04T14:53:49.002Z,4.70
2019-02-04T14:55:08.858Z,4.58
2019-02-04T14:56:43.304Z,3.90
2019-02-04T14:57:59.424Z,4.25
2019-02-04T14:59:22.003Z,3.98
2019-02-04T15:01:18.932Z,4.17
2019-02-04T15:02:53.756Z,4.17
2019-02-04T15:04:24.238Z,4.03
2019-02-04T15:05:40.715Z,4.05
2019-02-04T15:07:35.253Z,4.22
2019-02-04T15:09:02.358Z,4.00
2019-02-04T15:10:21.896Z,3.35
2019-02-04T15:12:15.408Z,4.15
2019-02-04T15:14:09.237Z,4.40
2019-02-04T15:16:04.527Z,4.22
2019-02-04T15:17:58.941Z,4.17
2019-02-04T15:19:25.630Z,3.98
2019-02-04T15:21:12.722Z,4.20
2019-02-04T15:22:42.517Z,4.47
2019-02-04T15:24:13.017Z,4.10
2019-02-04T15:26:11.222Z,4.25
2019-02-04T15:27:44.629Z,3.83
2019-02-04T15:29:30.293Z,3.77
2019-02-04T15:31:07.975Z,3.50
2019-02-04T15:32:50.427Z,3.92
2019-02-04T15:35:04.179Z,3.37
2019-02-04T15:36:34.801Z,3.65
2019-02-04T15:38:25.935Z,3.75
2019-02-04T15:40:39.332Z,3.47
2019-02-04T15:42:12.345Z,3.50
2019-02-04T15:43:35.081Z,3.83
2019-02-04T15:45:19.867Z,3.65
2019-02-04T15:47:01.599Z,3.67
2019-02-04T15:48:42.008Z,3.70
2019-02-04T15:50:25.715Z,4.08
2019-02-04T15:51:38.453Z,3.50
2019-02-04T15:52:45.767Z,3.85
2019-02-04T15:53:51.079Z,3.55
2019-02-04T15:54:55.883Z,4.20